Kansas City International Airport Kansas City US
ICAO: KMCI
IATA: MCI
Category: Large
Scheduled Services: Yes

Elevation: 1026 ft
TransAlt. 18000 ft.

Airport Communications:
APP:120.95
ATIS:126.625
CLNC DEL:135.7
DEP:124.7
GND:121.65
COLUMBIA RDO:122.65
INTL TWR:125.75
UNICOM:122.95

KMCI Zoom In..

Runways:

(A) RW 01L length 10801 ft width 150 ft
ILS 110.50 / hdg 11

(B) RW 01R length 9500 ft width 150 ft
ILS 110.75 / hdg 11

(C) RW 09 length 9500 ft width 150 ft
ILS 109.70 / hdg 94

(D) RW 19L length 9500 ft width 150 ft
ILS 109.55 / hdg 191

(E) RW 19R length 10801 ft width 150 ft
ILS 109.10 / hdg 191

(F) RW 27 length 9500 ft width 150 ft
ILS 109.70 / hdg 274

Location; KMCI
Day. 23 / Time. 00.05 Zulu
* Altimeter: 29.57
* Temperature: 00° c. 32°f.
* Wind from: 290° Speed 12 kn with Gusts up to 19 kn.
Dewpoint: -01° c.
Visibility: 2 Statute Miles.
Clouds: Overcast 500 ft.
Conditions: Light Snow.Conditions: Mist.

KMCI 230005Z 29012G19KT 2SM -SN BR OVC005 00/M01 A2957 RMK AO2 SFC VIS 3 FZDZE05SNB05 P0000 I1000 T00001006


Wind From 290°
Speed 12 kn.

YouTube Music Video
 
jpsmedia.com for Web Design  worldairports.se 2018   terms of use